Station History

Weather Underground - logo

Station Historical Data
Daily Summary for December 13, 2017 Units:  English    Metric   Both
« Previous Day
Next Day »
Daily Weekly Monthly Yearly Custom
  High: Low: Average:
Temperature: 61.8 °F 31.4 °F 43.7 °F
Dew Point: 42.6 °F 29.6 °F 36.6 °F
Humidity: 95 % 46 % 78 %
Wind Speed: 3.5 mph 0.0 mph 0.2 mph
Wind Gust: 3.5 mph - -
Wind:- - WSW
Pressure: 30.23 in 30.07 in -
Precipitation: 0.00 in    
Historical Graphs
 
 
Tabular Data for December 13, 2017
Time Temperature Dew Point Pressure Wind Wind Speed Wind Gust Humidity Rainfall Rate (Hourly)
00:04 35.8 °F 33.4 °F 30.22 in Calm     91 % 0.00 in
00:14 36.8 °F 34.4 °F 30.22 in Calm     91 % 0.00 in
00:19 37.1 °F 34.7 °F 30.22 in Calm     91 % 0.00 in
00:29 37.1 °F 34.2 °F 30.22 in Calm     89 % 0.00 in
00:34 36.8 °F 33.9 °F 30.22 in Calm     89 % 0.00 in
00:40 36.6 °F 33.7 °F 30.22 in Calm     89 % 0.00 in
00:45 36.1 °F 32.9 °F 30.22 in Calm     88 % 0.00 in
00:50 35.8 °F 32.9 °F 30.22 in Calm     89 % 0.00 in
00:55 35.8 °F 33.2 °F 30.22 in Calm     90 % 0.00 in
01:00 35.7 °F 33.1 °F 30.22 in Calm     90 % 0.00 in
01:05 35.7 °F 33.1 °F 30.22 in Calm     90 % 0.00 in
01:10 35.6 °F 33.0 °F 30.22 in Calm     90 % 0.00 in
01:15 35.2 °F 32.3 °F 30.22 in Calm     89 % 0.00 in
01:20 34.9 °F 32.3 °F 30.22 in Calm     90 % 0.00 in
01:45 35.9 °F 33.5 °F 30.22 in Calm     91 % 0.00 in
01:50 35.8 °F 33.4 °F 30.22 in Calm     91 % 0.00 in
01:55 35.9 °F 33.5 °F 30.22 in Calm     91 % 0.00 in
02:00 36.2 °F 33.8 °F 30.22 in Calm     91 % 0.00 in
02:15 36.3 °F 33.6 °F 30.22 in Calm     90 % 0.00 in
02:20 36.3 °F 33.4 °F 30.22 in Calm     89 % 0.00 in
02:25 36.1 °F 33.2 °F 30.22 in Calm     89 % 0.00 in
02:30 36.1 °F 33.2 °F 30.21 in Calm     89 % 0.00 in
02:40 35.8 °F 32.9 °F 30.21 in Calm     89 % 0.00 in
02:41 35.8 °F 32.9 °F 30.21 in Calm     89 % 0.00 in
02:46 35.3 °F 32.1 °F 30.22 in Calm     88 % 0.00 in
02:51 34.9 °F 32.0 °F 30.22 in Calm     89 % 0.00 in
02:56 34.5 °F 31.6 °F 30.21 in Calm     89 % 0.00 in
03:01 34.2 °F 31.3 °F 30.21 in Calm     89 % 0.00 in
03:06 33.8 °F 30.9 °F 30.22 in Calm     89 % 0.00 in
03:16 33.4 °F 30.8 °F 30.22 in Calm     90 % 0.00 in
03:21 33.5 °F 31.2 °F 30.21 in Calm     91 % 0.00 in
03:31 33.4 °F 31.3 °F 30.21 in Calm     92 % 0.00 in
03:36 33.5 °F 31.4 °F 30.21 in Calm     92 % 0.00 in
03:41 33.3 °F 31.0 °F 30.21 in Calm     91 % 0.00 in
03:46 33.2 °F 30.9 °F 30.21 in Calm     91 % 0.00 in
03:51 32.9 °F 30.6 °F 30.21 in Calm     91 % 0.00 in
03:56 32.6 °F 30.3 °F 30.21 in Calm     91 % 0.00 in
04:01 32.4 °F 30.1 °F 30.21 in Calm     91 % 0.00 in
04:06 32.1 °F 29.8 °F 30.21 in Calm     91 % 0.00 in
04:11 32.0 °F 29.7 °F 30.20 in Calm     91 % 0.00 in
04:16 31.9 °F 29.6 °F 30.20 in Calm     91 % 0.00 in
04:26 31.9 °F 29.6 °F 30.20 in Calm     91 % 0.00 in
04:31 31.9 °F 29.6 °F 30.20 in Calm     91 % 0.00 in
04:46 32.0 °F 29.9 °F 30.20 in Calm     92 % 0.00 in
04:51 32.1 °F 30.0 °F 30.20 in Calm     92 % 0.00 in
05:01 32.7 °F 30.6 °F 30.20 in Calm     92 % 0.00 in
05:07 32.5 °F 30.2 °F 30.20 in Calm     91 % 0.00 in
05:12 32.2 °F 29.9 °F 30.20 in Calm     91 % 0.00 in
05:22 32.3 °F 30.0 °F 30.20 in Calm     91 % 0.00 in
05:27 32.3 °F 30.0 °F 30.20 in Calm     91 % 0.00 in
05:37 32.6 °F 30.5 °F 30.20 in Calm     92 % 0.00 in
05:42 32.7 °F 30.6 °F 30.20 in Calm     92 % 0.00 in
05:47 32.6 °F 30.5 °F 30.20 in Calm     92 % 0.00 in
05:57 32.1 °F 30.0 °F 30.20 in Calm     92 % 0.00 in
06:02 32.0 °F 29.9 °F 30.20 in Calm     92 % 0.00 in
06:07 31.9 °F 29.8 °F 30.20 in Calm     92 % 0.00 in
06:12 32.0 °F 30.2 °F 30.20 in Calm     93 % 0.00 in
06:22 32.0 °F 30.2 °F 30.20 in Calm     93 % 0.00 in
06:27 32.1 °F 30.3 °F 30.20 in Calm     93 % 0.00 in
06:32 32.0 °F 30.2 °F 30.20 in Calm     93 % 0.00 in
06:37 31.8 °F 30.0 °F 30.20 in Calm     93 % 0.00 in
06:42 31.6 °F 29.8 °F 30.21 in Calm     93 % 0.00 in
06:47 31.4 °F 29.6 °F 30.21 in Calm     93 % 0.00 in
06:52 31.5 °F 29.7 °F 30.21 in Calm     93 % 0.00 in
06:57 31.8 °F 30.3 °F 30.21 in Calm     94 % 0.00 in
07:18 32.2 °F 30.7 °F 30.21 in Calm     94 % 0.00 in
07:28 32.6 °F 31.1 °F 30.21 in Calm     94 % 0.00 in
07:33 32.8 °F 31.3 °F 30.22 in Calm     94 % 0.00 in
07:38 33.2 °F 31.7 °F 30.21 in Calm     94 % 0.00 in
07:43 33.4 °F 31.9 °F 30.21 in Calm     94 % 0.00 in
07:48 33.7 °F 32.2 °F 30.22 in Calm     94 % 0.00 in
07:53 34.4 °F 33.1 °F 30.22 in Calm     95 % 0.00 in
07:58 34.8 °F 33.2 °F 30.22 in Calm     94 % 0.00 in
08:03 35.5 °F 33.9 °F 30.22 in Calm     94 % 0.00 in
08:08 36.3 °F 34.5 °F 30.22 in Calm     93 % 0.00 in
08:13 37.3 °F 35.5 °F 30.22 in Calm     93 % 0.00 in
08:18 38.1 °F 35.7 °F 30.22 in Calm     91 % 0.00 in
08:23 38.5 °F 35.5 °F 30.23 in Calm     89 % 0.00 in
08:28 38.9 °F 35.9 °F 30.23 in Calm     89 % 0.00 in
08:33 39.4 °F 36.4 °F 30.22 in Calm     89 % 0.00 in
08:38 39.9 °F 36.6 °F 30.23 in West 1.2 mph 1.2 mph 88 % 0.00 in
08:43 40.3 °F 37.0 °F 30.23 in West 1.2 mph   88 % 0.00 in
09:03 42.8 °F 38.0 °F 30.23 in Calm     83 % 0.00 in
09:08 43.3 °F 37.9 °F 30.23 in West 1.2 mph   81 % 0.00 in
09:13 43.7 °F 38.3 °F 30.23 in West 1.2 mph   81 % 0.00 in
09:18 44.4 °F 38.6 °F 30.23 in Calm     80 % 0.00 in
09:23 45.5 °F 38.7 °F 30.23 in Calm     77 % 0.00 in
09:28 46.0 °F 38.2 °F 30.23 in Calm     74 % 0.00 in
09:33 46.4 °F 38.6 °F 30.23 in Calm     74 % 0.00 in
09:38 47.0 °F 38.8 °F 30.23 in Calm     73 % 0.00 in
09:43 48.2 °F 39.2 °F 30.23 in Calm     71 % 0.00 in
09:58 51.2 °F 39.8 °F 30.22 in Calm     65 % 0.00 in
10:03 51.9 °F 40.1 °F 30.22 in Calm     64 % 0.00 in
10:13 52.1 °F 40.3 °F 30.22 in Calm     64 % 0.00 in
10:28 53.7 °F 41.4 °F 30.21 in Calm     63 % 0.00 in
10:33 53.7 °F 41.4 °F 30.21 in Calm     63 % 0.00 in
10:38 54.0 °F 40.8 °F 30.20 in Calm     61 % 0.00 in
10:58 55.8 °F 42.1 °F 30.18 in Calm     60 % 0.00 in
11:03 56.3 °F 42.6 °F 30.18 in Calm   0.6 mph 60 % 0.00 in
11:08 56.0 °F 41.0 °F 30.18 in NW 1.2 mph 1.2 mph 57 % 0.00 in
11:13 55.8 °F 41.2 °F 30.18 in ESE 1.2 mph 1.2 mph 58 % 0.00 in
11:23 56.3 °F 42.1 °F 30.17 in SE 1.2 mph   59 % 0.00 in
11:28 56.9 °F 41.8 °F 30.16 in West 1.2 mph   57 % 0.00 in
11:33 56.6 °F 41.5 °F 30.16 in Calm     57 % 0.00 in
11:44 57.0 °F 41.4 °F 30.16 in Calm     56 % 0.00 in
11:49 57.5 °F 41.4 °F 30.15 in Calm     55 % 0.00 in
11:59 58.9 °F 42.3 °F 30.15 in SSE 2.3 mph 2.3 mph 54 % 0.00 in
12:04 59.3 °F 42.6 °F 30.14 in SSW 1.2 mph 1.2 mph 54 % 0.00 in
12:15 58.8 °F 42.2 °F 30.14 in SE 1.2 mph 1.2 mph 54 % 0.00 in
12:20 59.1 °F 41.5 °F 30.14 in WSW 1.2 mph 1.2 mph 52 % 0.00 in
12:25 59.2 °F 41.6 °F 30.14 in NNW 1.2 mph   52 % 0.00 in
12:30 59.5 °F 41.9 °F 30.13 in WSW 1.2 mph   52 % 0.00 in
12:35 59.5 °F 40.8 °F 30.13 in West 1.2 mph 1.2 mph 50 % 0.00 in
12:42 59.7 °F 41.0 °F 30.13 in West 1.2 mph 1.2 mph 50 % 0.00 in
12:48 59.9 °F 41.2 °F 30.13 in North 3.5 mph 3.5 mph 50 % 0.00 in
12:53 59.9 °F 41.2 °F 30.13 in WNW 1.2 mph 1.2 mph 50 % 0.00 in
12:58 60.1 °F 41.4 °F 30.13 in West 3.0 mph 3.0 mph 50 % 0.00 in
13:03 60.1 °F 40.9 °F 30.13 in West 1.2 mph 1.2 mph 49 % 0.00 in
13:08 60.4 °F 42.2 °F 30.13 in Calm     51 % 0.00 in
13:13 60.6 °F 40.8 °F 30.12 in WNW 1.2 mph 1.2 mph 48 % 0.00 in
13:23 61.0 °F 41.2 °F 30.11 in NE 3.5 mph 3.5 mph 48 % 0.00 in
13:28 61.1 °F 41.2 °F 30.11 in Calm     48 % 0.00 in
13:38 61.2 °F 41.3 °F 30.11 in NNW 2.3 mph 2.3 mph 48 % 0.00 in
13:43 61.1 °F 41.2 °F 30.10 in Calm   0.1 mph 48 % 0.00 in
13:48 61.2 °F 41.3 °F 30.10 in Calm     48 % 0.00 in
13:53 61.3 °F 41.4 °F 30.10 in Calm     48 % 0.00 in
13:58 61.4 °F 41.0 °F 30.10 in NNW 1.2 mph 1.2 mph 47 % 0.00 in
14:03 61.6 °F 41.7 °F 30.10 in NW 1.2 mph 1.2 mph 48 % 0.00 in
14:08 61.6 °F 41.7 °F 30.10 in Calm     48 % 0.00 in
14:18 61.6 °F 41.2 °F 30.09 in Calm     47 % 0.00 in
14:23 61.7 °F 40.7 °F 30.09 in Calm     46 % 0.00 in
14:38 61.7 °F 40.7 °F 30.08 in NW 1.2 mph   46 % 0.00 in
14:48 61.7 °F 41.3 °F 30.09 in Calm     47 % 0.00 in
14:58 61.8 °F 41.9 °F 30.09 in NW 1.2 mph 1.2 mph 48 % 0.00 in
15:08 61.6 °F 40.6 °F 30.08 in NNW 1.2 mph 1.2 mph 46 % 0.00 in
15:13 61.4 °F 41.0 °F 30.07 in Calm     47 % 0.00 in
15:23 61.3 °F 40.9 °F 30.09 in Calm     47 % 0.00 in
15:28 61.1 °F 40.7 °F 30.08 in Calm     47 % 0.00 in
15:33 60.8 °F 41.0 °F 30.08 in Calm     48 % 0.00 in
15:38 60.5 °F 41.2 °F 30.08 in Calm     49 % 0.00 in
15:53 59.4 °F 41.3 °F 30.08 in Calm     51 % 0.00 in
16:03 58.6 °F 41.5 °F 30.08 in Calm     53 % 0.00 in
16:08 58.1 °F 41.5 °F 30.09 in Calm     54 % 0.00 in
16:13 57.8 °F 40.8 °F 30.08 in Calm     53 % 0.00 in
16:28 56.7 °F 40.7 °F 30.08 in Calm     55 % 0.00 in
16:33 56.2 °F 41.2 °F 30.08 in Calm     57 % 0.00 in
16:38 55.5 °F 41.0 °F 30.08 in Calm     58 % 0.00 in
16:43 54.7 °F 41.1 °F 30.08 in Calm     60 % 0.00 in
16:48 54.0 °F 40.8 °F 30.08 in Calm     61 % 0.00 in
16:59 53.0 °F 41.1 °F 30.08 in Calm     64 % 0.00 in
17:04 52.5 °F 41.1 °F 30.09 in Calm     65 % 0.00 in
17:14 51.4 °F 40.8 °F 30.09 in Calm     67 % 0.00 in
17:19 51.3 °F 41.1 °F 30.09 in Calm     68 % 0.00 in
17:24 50.9 °F 40.7 °F 30.09 in Calm     68 % 0.00 in
17:39 49.3 °F 40.7 °F 30.09 in Calm     72 % 0.00 in
17:44 49.0 °F 40.4 °F 30.10 in Calm     72 % 0.00 in
17:49 48.6 °F 40.3 °F 30.10 in Calm     73 % 0.00 in
18:00 47.5 °F 40.0 °F 30.09 in Calm     75 % 0.00 in
18:04 47.3 °F 40.5 °F 30.09 in Calm     77 % 0.00 in
18:10 47.2 °F 40.0 °F 30.09 in Calm     76 % 0.00 in
18:15 46.9 °F 40.1 °F 30.09 in Calm     77 % 0.00 in
18:25 45.8 °F 39.3 °F 30.09 in Calm     78 % 0.00 in
18:30 45.3 °F 39.2 °F 30.09 in Calm     79 % 0.00 in
18:40 44.6 °F 39.1 °F 30.10 in Calm     81 % 0.00 in
18:45 44.3 °F 39.2 °F 30.09 in Calm     82 % 0.00 in
18:50 44.1 °F 38.6 °F 30.10 in Calm     81 % 0.00 in
18:55 43.7 °F 38.6 °F 30.10 in Calm     82 % 0.00 in
19:05 42.9 °F 37.8 °F 30.10 in Calm     82 % 0.00 in
19:10 42.6 °F 37.5 °F 30.10 in Calm     82 % 0.00 in
19:15 42.3 °F 37.5 °F 30.10 in Calm     83 % 0.00 in
19:20 42.2 °F 38.0 °F 30.10 in Calm     85 % 0.00 in
19:21 42.2 °F 38.0 °F 30.10 in Calm     85 % 0.00 in
19:24 42.1 °F 37.9 °F 30.10 in Calm     85 % 0.00 in
19:25 42.1 °F 37.9 °F 30.10 in Calm     85 % 0.00 in
19:30 42.1 °F 38.2 °F 30.10 in Calm     86 % 0.00 in
19:40 41.9 °F 38.0 °F 30.10 in Calm     86 % 0.00 in
19:43 42.0 °F 38.1 °F 30.10 in Calm     86 % 0.00 in
19:48 42.5 °F 38.3 °F 30.10 in Calm     85 % 0.00 in
19:53 43.1 °F 38.6 °F 30.10 in Calm     84 % 0.00 in
19:55 43.3 °F 38.8 °F 30.10 in Calm     84 % 0.00 in
20:00 43.5 °F 38.4 °F 30.10 in Calm     82 % 0.00 in
20:05 43.7 °F 38.6 °F 30.10 in Calm     82 % 0.00 in
20:15 43.5 °F 38.4 °F 30.10 in Calm     82 % 0.00 in
20:17 43.4 °F 38.3 °F 30.10 in Calm     82 % 0.00 in
20:22 42.9 °F 37.5 °F 30.10 in Calm     81 % 0.00 in
20:27 42.1 °F 37.3 °F 30.10 in Calm     83 % 0.00 in
20:32 41.7 °F 36.9 °F 30.10 in Calm     83 % 0.00 in
20:42 41.3 °F 37.1 °F 30.10 in Calm     85 % 0.00 in
20:43 41.2 °F 37.0 °F 30.10 in Calm     85 % 0.00 in
20:53 40.7 °F 36.8 °F 30.11 in Calm     86 % 0.00 in
21:08 40.2 °F 36.6 °F 30.11 in Calm     87 % 0.00 in
21:09 40.2 °F 36.6 °F 30.11 in Calm     87 % 0.00 in
21:13 39.9 °F 36.6 °F 30.11 in Calm     88 % 0.00 in
21:18 39.6 °F 36.3 °F 30.11 in Calm     88 % 0.00 in
21:24 39.4 °F 36.1 °F 30.11 in Calm     88 % 0.00 in
21:28 39.4 °F 36.4 °F 30.11 in Calm     89 % 0.00 in
21:30 39.4 °F 36.4 °F 30.11 in Calm     89 % 0.00 in
21:34 39.4 °F 36.4 °F 30.11 in Calm     89 % 0.00 in
21:39 39.4 °F 36.4 °F 30.11 in Calm     89 % 0.00 in
21:44 39.3 °F 36.3 °F 30.11 in Calm     89 % 0.00 in
21:49 39.1 °F 36.1 °F 30.11 in Calm     89 % 0.00 in
21:54 39.0 °F 36.0 °F 30.11 in Calm     89 % 0.00 in
21:59 38.8 °F 35.8 °F 30.11 in Calm     89 % 0.00 in
22:04 38.6 °F 35.6 °F 30.11 in Calm     89 % 0.00 in
22:14 38.5 °F 35.8 °F 30.11 in Calm     90 % 0.00 in
22:19 38.5 °F 35.8 °F 30.11 in Calm     90 % 0.00 in
22:20 38.5 °F 35.8 °F 30.11 in Calm     90 % 0.00 in
22:24 38.4 °F 35.7 °F 30.11 in Calm     90 % 0.00 in
22:29 38.4 °F 35.7 °F 30.11 in Calm     90 % 0.00 in
22:34 38.4 °F 36.0 °F 30.11 in Calm     91 % 0.00 in
22:39 38.5 °F 36.1 °F 30.11 in Calm     91 % 0.00 in
22:44 38.5 °F 36.1 °F 30.11 in Calm     91 % 0.00 in
22:49 38.5 °F 36.1 °F 30.11 in Calm     91 % 0.00 in
22:54 38.7 °F 36.3 °F 30.11 in Calm     91 % 0.00 in
22:58 39.1 °F 36.7 °F 30.11 in Calm     91 % 0.00 in
23:04 39.4 °F 36.7 °F 30.11 in Calm     90 % 0.00 in
23:09 39.8 °F 36.8 °F 30.11 in Calm     89 % 0.00 in
23:13 40.1 °F 36.8 °F 30.11 in Calm     88 % 0.00 in
23:17 40.2 °F 36.6 °F 30.10 in Calm     87 % 0.00 in
23:22 40.2 °F 36.3 °F 30.11 in Calm     86 % 0.00 in
23:27 40.1 °F 36.2 °F 30.11 in Calm     86 % 0.00 in
23:32 40.2 °F 36.6 °F 30.11 in Calm     87 % 0.00 in
23:37 40.4 °F 36.5 °F 30.11 in Calm     86 % 0.00 in
23:42 40.5 °F 36.6 °F 30.11 in Calm     86 % 0.00 in
23:47 40.6 °F 36.7 °F 30.11 in Calm     86 % 0.00 in
23:52 40.7 °F 36.5 °F 30.11 in WSW 1.2 mph   85 % 0.00 in
Park Place, Exeter, Tulare County, California, USA
Compliments of Weather Underground - 2.5 mb